Portada
METAR-TAF:

METAR-TAF

Aeroports :

Foz do Iguaçu, Paranà, Brasil

latitud: 25-31S, longitud: 054-35W, altitud: 180 m

Observació

L'informe es va fer fa 1 hora i 9 minuts, a les 06:00 UTC
Vent 2 kt del Sud-Oest
Temperatura 9°C
Humitat 100%
Pressió 1020 hPa
Visibilitat 10 km o més
Cel cobert a una alçada de 1500 ft

METAR: SBFI 090600Z 22002KT 9999 OVC015 09/09 Q1020

Hora: 04:09 (07:09 UTC)

Pronòstic

L'informe es va fer fa 4 hores i 9 minuts, a les 03:00 UTC
Pronòstic vàlid del 09 a les 06 UTC al 10 a les 06 UTC
Vent 4 kt del Est
Visibilitat: 8000 m
Cel ennuvolat a una alçada de 1200 ft
Temporalment
l' 09 a les 08 UTC al 09 a les 12 UTC
Visibilitat: 4000 m
plugim
Evolucionant progressivament
l' 09 a les 12 UTC al 09 a les 14 UTC
Visibilitat 10 km o més
Núvols disperses a una alçada de 3000 ft

TAF: SBFI 090300Z 0906/1006 09004KT 8000 BKN012 TN11/0912Z TX14/0917Z TEMPO 0908/0912 4000 -DZ BECMG 0912/0914 9999 NSW SCT030 RMK PEA

Observacions i pronòstics meteorològics de més de 4000 aeroports (METAR i TAF).

Les estacions disponibles són els punts grocs i vermells al mapa.

Posi el ratolí al punt desitjat per veure el nom de l'estació.

Feu clic per veure les observacions i els pronòstics meteorològics.

Per canviar el mapa: feu clic els botons verds amb una creu de color negre per apropar; al botó verd amb un guió per allunyar la imatge; o en les fletxes verdes per a mapes adjacents.


METAR-TAF: